createdAt,value
2018-07-10T09:30:27.232Z,99735.48
2018-07-10T09:33:16.318Z,99728.41
2018-07-10T09:36:04.533Z,99731.31
2018-07-10T09:38:52.970Z,99740.70
2018-07-10T09:41:41.088Z,99738.25
2018-07-10T09:44:29.038Z,99730.20
2018-07-10T09:47:17.119Z,99735.09
2018-07-10T09:50:04.765Z,99733.84
2018-07-10T09:52:52.238Z,99741.40
2018-07-10T09:55:39.823Z,99737.23
2018-07-10T09:58:27.668Z,99727.09
2018-07-10T10:02:06.664Z,99723.73
2018-07-10T10:04:54.365Z,99718.19
2018-07-10T10:07:42.362Z,99724.20
2018-07-10T10:10:30.411Z,99733.19
2018-07-10T10:13:22.569Z,99726.61
2018-07-10T10:16:15.067Z,99711.11
2018-07-10T10:19:06.397Z,99703.15
2018-07-10T10:21:53.149Z,99696.81
2018-07-10T10:24:41.702Z,99706.69
2018-07-10T10:27:30.631Z,99715.05
2018-07-10T10:30:18.634Z,99711.60
2018-07-10T10:33:06.692Z,99705.80
2018-07-10T10:35:55.064Z,99703.69
2018-07-10T10:38:47.220Z,99699.22
2018-07-10T10:41:33.681Z,99700.84
2018-07-10T10:44:20.091Z,99698.49
2018-07-10T10:47:06.191Z,99697.23
2018-07-10T10:49:51.264Z,99704.78
2018-07-10T10:52:38.131Z,99704.73
2018-07-10T10:55:26.294Z,99701.58
2018-07-10T10:58:12.689Z,99701.58
2018-07-10T11:00:58.276Z,99693.77
2018-07-10T11:03:45.139Z,99693.53
2018-07-10T11:06:34.767Z,99699.70
2018-07-10T11:09:21.813Z,99699.42
2018-07-10T11:12:08.619Z,99688.37
2018-07-10T11:14:54.005Z,99686.42
2018-07-10T11:17:45.285Z,99696.87
2018-07-10T11:20:49.153Z,99712.30
2018-07-10T11:23:42.751Z,99735.52
2018-07-10T11:26:48.597Z,99741.09
2018-07-10T11:29:34.363Z,99739.83
2018-07-10T11:32:26.035Z,99732.92
2018-07-10T11:35:13.189Z,99738.83
2018-07-10T11:38:08.985Z,99733.23
2018-07-10T11:40:56.264Z,99737.02
2018-07-10T11:43:44.506Z,99723.29
2018-07-10T11:46:29.138Z,99716.20
2018-07-10T11:49:16.090Z,99716.50
2018-07-10T11:52:02.178Z,99720.75
2018-07-10T11:54:51.999Z,99727.67
2018-07-10T11:57:37.693Z,99733.64
2018-07-10T12:00:25.171Z,99725.17
2018-07-10T12:03:11.954Z,99715.23
2018-07-10T12:05:57.418Z,99716.05
2018-07-10T12:08:42.623Z,99720.06
2018-07-10T12:11:29.317Z,99712.09
2018-07-10T12:14:15.878Z,99711.44
2018-07-10T12:17:02.921Z,99710.97
2018-07-10T12:19:54.206Z,99708.42
2018-07-10T12:22:43.863Z,99707.14
2018-07-10T12:25:29.775Z,99709.23
2018-07-10T12:28:18.103Z,99709.91
2018-07-10T12:31:03.768Z,99721.63
2018-07-10T12:33:49.772Z,99725.11
2018-07-10T12:36:36.398Z,99726.16
2018-07-10T12:39:21.785Z,99740.73
2018-07-10T12:42:08.490Z,99744.52
2018-07-10T12:44:53.913Z,99745.03
2018-07-10T12:47:41.384Z,99750.16
2018-07-10T12:50:27.734Z,99756.55
2018-07-10T12:53:14.420Z,99767.84
2018-07-10T12:56:04.166Z,99777.59
